sensor_id;sensor_type;location;lat;lon;timestamp;P1;durP1;ratioP1;P2;durP2;ratioP2
18072;SDS011;9161;47.348;9.648;2023-03-01T00:00:28;24.23;;;11.67;;
18072;SDS011;9161;47.348;9.648;2023-03-01T00:05:33;26.57;;;13.00;;
18072;SDS011;9161;47.348;9.648;2023-03-01T00:10:35;24.03;;;11.97;;
18072;SDS011;9161;47.348;9.648;2023-03-01T00:15:41;23.80;;;12.07;;
18072;SDS011;9161;47.348;9.648;2023-03-01T00:20:50;25.77;;;12.87;;
18072;SDS011;9161;47.348;9.648;2023-03-01T00:25:52;23.97;;;12.33;;
18072;SDS011;9161;47.348;9.648;2023-03-01T00:30:55;26.37;;;12.53;;
18072;SDS011;9161;47.348;9.648;2023-03-01T00:35:59;28.57;;;12.07;;
18072;SDS011;9161;47.348;9.648;2023-03-01T00:41:04;23.33;;;12.10;;
18072;SDS011;9161;47.348;9.648;2023-03-01T00:46:09;25.00;;;12.33;;
18072;SDS011;9161;47.348;9.648;2023-03-01T00:51:15;25.83;;;12.50;;
18072;SDS011;9161;47.348;9.648;2023-03-01T00:56:19;24.67;;;12.40;;
18072;SDS011;9161;47.348;9.648;2023-03-01T01:01:23;26.20;;;12.93;;
18072;SDS011;9161;47.348;9.648;2023-03-01T01:06:32;26.93;;;12.63;;
18072;SDS011;9161;47.348;9.648;2023-03-01T01:11:35;25.90;;;12.50;;
18072;SDS011;9161;47.348;9.648;2023-03-01T01:16:38;27.67;;;13.23;;
18072;SDS011;9161;47.348;9.648;2023-03-01T01:21:42;29.30;;;13.43;;
18072;SDS011;9161;47.348;9.648;2023-03-01T01:26:45;27.90;;;13.33;;
18072;SDS011;9161;47.348;9.648;2023-03-01T01:31:48;25.90;;;13.40;;
18072;SDS011;9161;47.348;9.648;2023-03-01T01:36:52;25.10;;;12.70;;
18072;SDS011;9161;47.348;9.648;2023-03-01T01:41:55;27.23;;;12.70;;
18072;SDS011;9161;47.348;9.648;2023-03-01T01:46:58;24.63;;;11.93;;
18072;SDS011;9161;47.348;9.648;2023-03-01T01:52:08;22.67;;;12.53;;
18072;SDS011;9161;47.348;9.648;2023-03-01T01:57:14;24.40;;;12.33;;
18072;SDS011;9161;47.348;9.648;2023-03-01T02:02:19;26.17;;;12.13;;
18072;SDS011;9161;47.348;9.648;2023-03-01T02:07:23;30.70;;;13.67;;
18072;SDS011;9161;47.348;9.648;2023-03-01T02:12:27;29.37;;;13.07;;
18072;SDS011;9161;47.348;9.648;2023-03-01T02:17:30;28.17;;;13.57;;
18072;SDS011;9161;47.348;9.648;2023-03-01T02:22:36;30.10;;;14.30;;
18072;SDS011;9161;47.348;9.648;2023-03-01T02:27:43;26.30;;;13.37;;
18072;SDS011;9161;47.348;9.648;2023-03-01T02:32:55;30.20;;;13.43;;
18072;SDS011;9161;47.348;9.648;2023-03-01T02:38:06;32.07;;;14.17;;
18072;SDS011;9161;47.348;9.648;2023-03-01T02:43:10;25.57;;;13.50;;
18072;SDS011;9161;47.348;9.648;2023-03-01T02:48:14;26.13;;;13.73;;
18072;SDS011;9161;47.348;9.648;2023-03-01T02:53:19;30.73;;;14.30;;
18072;SDS011;9161;47.348;9.648;2023-03-01T02:58:27;26.63;;;13.03;;
18072;SDS011;9161;47.348;9.648;2023-03-01T03:03:30;27.23;;;12.47;;
18072;SDS011;9161;47.348;9.648;2023-03-01T03:08:32;25.80;;;12.93;;
18072;SDS011;9161;47.348;9.648;2023-03-01T03:13:35;27.80;;;12.93;;
18072;SDS011;9161;47.348;9.648;2023-03-01T03:18:39;25.07;;;12.73;;
18072;SDS011;9161;47.348;9.648;2023-03-01T03:23:42;27.23;;;13.10;;
18072;SDS011;9161;47.348;9.648;2023-03-01T03:28:45;27.07;;;13.57;;
18072;SDS011;9161;47.348;9.648;2023-03-01T03:33:48;29.23;;;14.23;;
18072;SDS011;9161;47.348;9.648;2023-03-01T03:38:50;26.70;;;12.30;;
18072;SDS011;9161;47.348;9.648;2023-03-01T03:43:53;29.70;;;13.93;;
18072;SDS011;9161;47.348;9.648;2023-03-01T03:48:56;27.27;;;12.93;;
18072;SDS011;9161;47.348;9.648;2023-03-01T03:53:59;28.43;;;13.27;;
18072;SDS011;9161;47.348;9.648;2023-03-01T03:59:01;27.23;;;13.30;;
18072;SDS011;9161;47.348;9.648;2023-03-01T04:04:05;28.47;;;13.33;;
18072;SDS011;9161;47.348;9.648;2023-03-01T04:09:07;27.83;;;12.73;;
18072;SDS011;9161;47.348;9.648;2023-03-01T04:14:10;28.33;;;13.10;;
18072;SDS011;9161;47.348;9.648;2023-03-01T04:19:14;25.33;;;13.63;;
18072;SDS011;9161;47.348;9.648;2023-03-01T04:24:16;27.77;;;12.43;;
18072;SDS011;9161;47.348;9.648;2023-03-01T04:29:18;26.70;;;12.73;;
18072;SDS011;9161;47.348;9.648;2023-03-01T04:34:21;28.00;;;12.20;;
18072;SDS011;9161;47.348;9.648;2023-03-01T04:39:24;29.00;;;11.93;;
18072;SDS011;9161;47.348;9.648;2023-03-01T04:44:26;29.53;;;13.50;;
18072;SDS011;9161;47.348;9.648;2023-03-01T04:49:30;28.30;;;12.53;;
18072;SDS011;9161;47.348;9.648;2023-03-01T04:54:32;29.23;;;12.83;;
18072;SDS011;9161;47.348;9.648;2023-03-01T04:59:35;30.13;;;12.90;;
18072;SDS011;9161;47.348;9.648;2023-03-01T05:04:38;25.13;;;12.10;;
18072;SDS011;9161;47.348;9.648;2023-03-01T05:09:40;27.07;;;11.40;;
18072;SDS011;9161;47.348;9.648;2023-03-01T05:14:42;26.07;;;11.77;;
18072;SDS011;9161;47.348;9.648;2023-03-01T05:19:46;27.40;;;12.30;;
18072;SDS011;9161;47.348;9.648;2023-03-01T05:24:48;28.17;;;11.00;;
18072;SDS011;9161;47.348;9.648;2023-03-01T05:29:52;27.10;;;11.97;;
18072;SDS011;9161;47.348;9.648;2023-03-01T05:34:56;24.40;;;12.20;;
18072;SDS011;9161;47.348;9.648;2023-03-01T05:39:58;24.17;;;11.27;;
18072;SDS011;9161;47.348;9.648;2023-03-01T05:45:00;27.67;;;12.40;;
18072;SDS011;9161;47.348;9.648;2023-03-01T05:50:04;26.73;;;12.43;;
18072;SDS011;9161;47.348;9.648;2023-03-01T05:55:07;28.93;;;12.60;;
18072;SDS011;9161;47.348;9.648;2023-03-01T06:00:10;26.77;;;11.17;;
18072;SDS011;9161;47.348;9.648;2023-03-01T06:05:15;24.23;;;11.60;;
18072;SDS011;9161;47.348;9.648;2023-03-01T06:10:18;25.67;;;11.87;;
18072;SDS011;9161;47.348;9.648;2023-03-01T06:15:21;29.07;;;12.17;;
18072;SDS011;9161;47.348;9.648;2023-03-01T06:20:26;23.27;;;10.97;;
18072;SDS011;9161;47.348;9.648;2023-03-01T06:25:29;24.17;;;11.20;;
18072;SDS011;9161;47.348;9.648;2023-03-01T06:30:32;26.70;;;12.23;;
18072;SDS011;9161;47.348;9.648;2023-03-01T06:35:35;30.37;;;11.97;;
18072;SDS011;9161;47.348;9.648;2023-03-01T06:40:38;27.07;;;11.77;;
18072;SDS011;9161;47.348;9.648;2023-03-01T06:45:40;27.67;;;12.53;;
18072;SDS011;9161;47.348;9.648;2023-03-01T06:50:44;28.17;;;12.43;;
18072;SDS011;9161;47.348;9.648;2023-03-01T06:55:47;26.40;;;12.53;;
18072;SDS011;9161;47.348;9.648;2023-03-01T07:00:55;27.37;;;12.07;;
18072;SDS011;9161;47.348;9.648;2023-03-01T07:05:59;26.77;;;12.73;;
18072;SDS011;9161;47.348;9.648;2023-03-01T07:11:01;27.77;;;11.53;;
18072;SDS011;9161;47.348;9.648;2023-03-01T07:16:04;29.37;;;11.57;;
18072;SDS011;9161;47.348;9.648;2023-03-01T07:21:08;24.30;;;11.57;;
18072;SDS011;9161;47.348;9.648;2023-03-01T07:26:13;27.00;;;12.00;;
18072;SDS011;9161;47.348;9.648;2023-03-01T07:31:15;22.03;;;10.90;;
18072;SDS011;9161;47.348;9.648;2023-03-01T07:36:19;25.20;;;11.43;;
18072;SDS011;9161;47.348;9.648;2023-03-01T07:41:22;23.40;;;11.17;;
18072;SDS011;9161;47.348;9.648;2023-03-01T07:46:24;22.07;;;10.87;;
18072;SDS011;9161;47.348;9.648;2023-03-01T07:51:27;26.73;;;11.47;;
18072;SDS011;9161;47.348;9.648;2023-03-01T07:56:30;28.40;;;12.03;;
18072;SDS011;9161;47.348;9.648;2023-03-01T08:01:33;25.07;;;11.57;;
18072;SDS011;9161;47.348;9.648;2023-03-01T08:06:36;25.90;;;12.33;;
18072;SDS011;9161;47.348;9.648;2023-03-01T08:11:38;28.30;;;12.47;;
18072;SDS011;9161;47.348;9.648;2023-03-01T08:16:41;24.63;;;11.23;;
18072;SDS011;9161;47.348;9.648;2023-03-01T08:21:44;26.13;;;11.40;;
18072;SDS011;9161;47.348;9.648;2023-03-01T08:26:47;25.60;;;12.07;;
18072;SDS011;9161;47.348;9.648;2023-03-01T08:31:49;24.90;;;12.33;;
18072;SDS011;9161;47.348;9.648;2023-03-01T08:36:54;26.43;;;11.70;;
18072;SDS011;9161;47.348;9.648;2023-03-01T08:41:56;26.03;;;11.80;;
18072;SDS011;9161;47.348;9.648;2023-03-01T08:46:58;25.03;;;12.23;;
18072;SDS011;9161;47.348;9.648;2023-03-01T08:52:04;23.23;;;11.23;;
18072;SDS011;9161;47.348;9.648;2023-03-01T08:57:06;26.47;;;11.87;;
18072;SDS011;9161;47.348;9.648;2023-03-01T09:02:11;25.67;;;12.27;;
18072;SDS011;9161;47.348;9.648;2023-03-01T09:07:15;23.77;;;11.60;;
18072;SDS011;9161;47.348;9.648;2023-03-01T09:12:17;24.83;;;12.17;;
18072;SDS011;9161;47.348;9.648;2023-03-01T09:17:20;25.23;;;12.07;;
18072;SDS011;9161;47.348;9.648;2023-03-01T09:22:24;25.93;;;12.17;;
18072;SDS011;9161;47.348;9.648;2023-03-01T09:27:26;24.60;;;12.23;;
18072;SDS011;9161;47.348;9.648;2023-03-01T09:32:29;25.23;;;12.13;;
18072;SDS011;9161;47.348;9.648;2023-03-01T09:37:34;24.33;;;12.20;;
18072;SDS011;9161;47.348;9.648;2023-03-01T09:42:37;27.57;;;13.17;;
18072;SDS011;9161;47.348;9.648;2023-03-01T09:47:50;25.47;;;13.17;;
18072;SDS011;9161;47.348;9.648;2023-03-01T09:52:58;30.97;;;12.83;;
18072;SDS011;9161;47.348;9.648;2023-03-01T09:58:06;16.47;;;7.07;;
18072;SDS011;9161;47.348;9.648;2023-03-01T10:03:30;21.77;;;10.73;;
18072;SDS011;9161;47.348;9.648;2023-03-01T10:08:40;25.63;;;13.00;;
18072;SDS011;9161;47.348;9.648;2023-03-01T10:13:49;24.27;;;12.57;;
18072;SDS011;9161;47.348;9.648;2023-03-01T10:18:58;25.13;;;12.93;;
18072;SDS011;9161;47.348;9.648;2023-03-01T10:24:10;24.97;;;12.90;;
18072;SDS011;9161;47.348;9.648;2023-03-01T10:29:15;23.50;;;12.13;;
18072;SDS011;9161;47.348;9.648;2023-03-01T10:34:18;25.47;;;12.63;;
18072;SDS011;9161;47.348;9.648;2023-03-01T10:39:24;26.10;;;13.17;;
18072;SDS011;9161;47.348;9.648;2023-03-01T10:44:43;26.07;;;13.57;;
18072;SDS011;9161;47.348;9.648;2023-03-01T10:49:56;23.93;;;12.63;;
18072;SDS011;9161;47.348;9.648;2023-03-01T10:55:03;25.17;;;12.73;;
18072;SDS011;9161;47.348;9.648;2023-03-01T11:00:25;24.73;;;13.30;;
18072;SDS011;9161;47.348;9.648;2023-03-01T11:05:28;22.40;;;12.33;;
18072;SDS011;9161;47.348;9.648;2023-03-01T11:10:35;23.10;;;12.07;;
18072;SDS011;9161;47.348;9.648;2023-03-01T11:15:38;22.23;;;12.47;;
18072;SDS011;9161;47.348;9.648;2023-03-01T11:20:40;22.83;;;11.93;;
18072;SDS011;9161;47.348;9.648;2023-03-01T11:25:46;23.27;;;12.57;;
18072;SDS011;9161;47.348;9.648;2023-03-01T11:30:53;21.27;;;11.47;;
18072;SDS011;9161;47.348;9.648;2023-03-01T11:36:11;23.50;;;12.23;;
18072;SDS011;9161;47.348;9.648;2023-03-01T11:41:21;25.63;;;13.40;;
18072;SDS011;9161;47.348;9.648;2023-03-01T11:46:40;22.60;;;12.30;;
18072;SDS011;9161;47.348;9.648;2023-03-01T11:51:52;23.70;;;12.87;;
18072;SDS011;9161;47.348;9.648;2023-03-01T11:57:03;19.10;;;11.63;;
18072;SDS011;9161;47.348;9.648;2023-03-01T12:08:00;18.23;;;10.23;;
18072;SDS011;9161;47.348;9.648;2023-03-01T12:18:50;17.73;;;10.97;;
18072;SDS011;9161;47.348;9.648;2023-03-01T12:24:16;17.17;;;10.33;;
18072;SDS011;9161;47.348;9.648;2023-03-01T12:29:36;15.77;;;10.75;;
18072;SDS011;9161;47.348;9.648;2023-03-01T12:34:50;15.65;;;10.55;;
18072;SDS011;9161;47.348;9.648;2023-03-01T12:40:15;16.90;;;10.93;;
18072;SDS011;9161;47.348;9.648;2023-03-01T12:45:46;16.60;;;10.83;;
18072;SDS011;9161;47.348;9.648;2023-03-01T12:50:59;20.07;;;11.23;;
18072;SDS011;9161;47.348;9.648;2023-03-01T12:56:05;19.80;;;10.73;;
18072;SDS011;9161;47.348;9.648;2023-03-01T13:01:19;19.10;;;10.67;;
18072;SDS011;9161;47.348;9.648;2023-03-01T13:06:25;18.50;;;10.00;;
18072;SDS011;9161;47.348;9.648;2023-03-01T13:11:43;19.27;;;9.90;;
18072;SDS011;9161;47.348;9.648;2023-03-01T13:16:46;22.33;;;11.23;;
18072;SDS011;9161;47.348;9.648;2023-03-01T13:21:51;22.77;;;10.80;;
18072;SDS011;9161;47.348;9.648;2023-03-01T13:27:11;19.13;;;10.33;;
18072;SDS011;9161;47.348;9.648;2023-03-01T13:32:26;21.63;;;11.13;;
18072;SDS011;9161;47.348;9.648;2023-03-01T13:37:48;20.33;;;10.33;;
18072;SDS011;9161;47.348;9.648;2023-03-01T13:42:50;21.33;;;10.70;;
18072;SDS011;9161;47.348;9.648;2023-03-01T13:48:09;19.40;;;10.83;;
18072;SDS011;9161;47.348;9.648;2023-03-01T13:53:14;20.60;;;10.70;;
18072;SDS011;9161;47.348;9.648;2023-03-01T13:58:21;22.50;;;11.93;;
18072;SDS011;9161;47.348;9.648;2023-03-01T14:03:27;20.77;;;10.27;;
18072;SDS011;9161;47.348;9.648;2023-03-01T14:08:30;20.10;;;10.13;;
18072;SDS011;9161;47.348;9.648;2023-03-01T14:13:37;19.30;;;10.73;;
18072;SDS011;9161;47.348;9.648;2023-03-01T14:18:54;18.07;;;10.50;;
18072;SDS011;9161;47.348;9.648;2023-03-01T14:24:03;24.27;;;12.33;;
18072;SDS011;9161;47.348;9.648;2023-03-01T14:29:05;20.43;;;10.87;;
18072;SDS011;9161;47.348;9.648;2023-03-01T14:34:16;22.50;;;11.87;;
18072;SDS011;9161;47.348;9.648;2023-03-01T14:39:24;22.57;;;10.57;;
18072;SDS011;9161;47.348;9.648;2023-03-01T14:44:27;22.67;;;11.03;;
18072;SDS011;9161;47.348;9.648;2023-03-01T14:49:31;22.07;;;11.33;;
18072;SDS011;9161;47.348;9.648;2023-03-01T14:54:38;21.03;;;11.03;;
18072;SDS011;9161;47.348;9.648;2023-03-01T14:59:43;22.00;;;11.50;;
18072;SDS011;9161;47.348;9.648;2023-03-01T15:04:47;22.60;;;11.57;;
18072;SDS011;9161;47.348;9.648;2023-03-01T15:09:51;20.93;;;11.10;;
18072;SDS011;9161;47.348;9.648;2023-03-01T15:14:54;23.97;;;11.40;;
18072;SDS011;9161;47.348;9.648;2023-03-01T15:20:06;26.40;;;12.63;;
18072;SDS011;9161;47.348;9.648;2023-03-01T15:25:18;23.63;;;11.97;;
18072;SDS011;9161;47.348;9.648;2023-03-01T15:30:23;25.10;;;11.37;;
18072;SDS011;9161;47.348;9.648;2023-03-01T15:35:41;24.90;;;12.23;;
18072;SDS011;9161;47.348;9.648;2023-03-01T15:40:49;24.30;;;12.13;;
18072;SDS011;9161;47.348;9.648;2023-03-01T15:45:55;25.50;;;12.33;;
18072;SDS011;9161;47.348;9.648;2023-03-01T15:51:00;22.87;;;11.80;;
18072;SDS011;9161;47.348;9.648;2023-03-01T15:56:02;28.87;;;12.50;;
18072;SDS011;9161;47.348;9.648;2023-03-01T16:01:08;24.87;;;12.10;;
18072;SDS011;9161;47.348;9.648;2023-03-01T16:06:15;26.53;;;12.70;;
18072;SDS011;9161;47.348;9.648;2023-03-01T16:11:18;23.90;;;12.07;;
18072;SDS011;9161;47.348;9.648;2023-03-01T16:16:21;30.50;;;12.50;;
18072;SDS011;9161;47.348;9.648;2023-03-01T16:21:26;28.03;;;12.23;;
18072;SDS011;9161;47.348;9.648;2023-03-01T16:26:29;26.73;;;13.03;;
18072;SDS011;9161;47.348;9.648;2023-03-01T16:31:31;25.37;;;12.27;;
18072;SDS011;9161;47.348;9.648;2023-03-01T16:36:36;25.20;;;12.63;;
18072;SDS011;9161;47.348;9.648;2023-03-01T16:41:39;28.07;;;14.20;;
18072;SDS011;9161;47.348;9.648;2023-03-01T16:46:41;25.47;;;12.47;;
18072;SDS011;9161;47.348;9.648;2023-03-01T16:51:47;24.57;;;12.17;;
18072;SDS011;9161;47.348;9.648;2023-03-01T16:56:50;28.43;;;13.20;;
18072;SDS011;9161;47.348;9.648;2023-03-01T17:01:53;29.47;;;12.87;;
18072;SDS011;9161;47.348;9.648;2023-03-01T17:06:58;25.53;;;12.17;;
18072;SDS011;9161;47.348;9.648;2023-03-01T17:12:01;27.83;;;13.13;;
18072;SDS011;9161;47.348;9.648;2023-03-01T17:17:08;30.37;;;12.40;;
18072;SDS011;9161;47.348;9.648;2023-03-01T17:22:12;25.00;;;11.73;;
18072;SDS011;9161;47.348;9.648;2023-03-01T17:27:15;28.03;;;12.97;;
18072;SDS011;9161;47.348;9.648;2023-03-01T17:32:18;28.90;;;13.37;;
18072;SDS011;9161;47.348;9.648;2023-03-01T17:37:24;26.40;;;12.70;;
18072;SDS011;9161;47.348;9.648;2023-03-01T17:42:29;27.20;;;12.17;;
18072;SDS011;9161;47.348;9.648;2023-03-01T17:47:31;28.23;;;13.23;;
18072;SDS011;9161;47.348;9.648;2023-03-01T17:52:37;26.63;;;13.70;;
18072;SDS011;9161;47.348;9.648;2023-03-01T17:57:40;30.37;;;13.80;;
18072;SDS011;9161;47.348;9.648;2023-03-01T18:02:43;32.13;;;14.30;;
18072;SDS011;9161;47.348;9.648;2023-03-01T18:07:47;30.07;;;13.50;;
18072;SDS011;9161;47.348;9.648;2023-03-01T18:12:52;31.80;;;13.93;;
18072;SDS011;9161;47.348;9.648;2023-03-01T18:17:57;27.67;;;13.27;;
18072;SDS011;9161;47.348;9.648;2023-03-01T18:23:02;33.50;;;13.57;;
18072;SDS011;9161;47.348;9.648;2023-03-01T18:28:06;29.13;;;15.27;;
18072;SDS011;9161;47.348;9.648;2023-03-01T18:33:09;28.47;;;13.87;;
18072;SDS011;9161;47.348;9.648;2023-03-01T18:38:14;27.73;;;13.17;;
18072;SDS011;9161;47.348;9.648;2023-03-01T18:43:18;28.87;;;14.07;;
18072;SDS011;9161;47.348;9.648;2023-03-01T18:48:22;30.83;;;14.03;;
18072;SDS011;9161;47.348;9.648;2023-03-01T18:53:28;30.03;;;14.67;;
18072;SDS011;9161;47.348;9.648;2023-03-01T18:58:33;31.57;;;14.03;;
18072;SDS011;9161;47.348;9.648;2023-03-01T19:03:36;28.23;;;13.97;;
18072;SDS011;9161;47.348;9.648;2023-03-01T19:08:41;30.13;;;14.30;;
18072;SDS011;9161;47.348;9.648;2023-03-01T19:13:45;30.77;;;13.83;;
18072;SDS011;9161;47.348;9.648;2023-03-01T19:18:53;31.00;;;14.57;;
18072;SDS011;9161;47.348;9.648;2023-03-01T19:24:00;27.23;;;13.40;;
18072;SDS011;9161;47.348;9.648;2023-03-01T19:29:04;30.50;;;14.60;;
18072;SDS011;9161;47.348;9.648;2023-03-01T19:34:08;28.57;;;13.47;;
18072;SDS011;9161;47.348;9.648;2023-03-01T19:39:16;27.90;;;13.67;;
18072;SDS011;9161;47.348;9.648;2023-03-01T19:44:21;29.03;;;14.00;;
18072;SDS011;9161;47.348;9.648;2023-03-01T19:49:28;32.13;;;15.30;;
18072;SDS011;9161;47.348;9.648;2023-03-01T19:54:51;32.40;;;15.60;;
18072;SDS011;9161;47.348;9.648;2023-03-01T20:00:30;32.60;;;14.70;;
18072;SDS011;9161;47.348;9.648;2023-03-01T20:05:37;32.67;;;15.47;;
18072;SDS011;9161;47.348;9.648;2023-03-01T20:10:46;32.63;;;14.30;;
18072;SDS011;9161;47.348;9.648;2023-03-01T20:15:50;33.87;;;15.23;;
18072;SDS011;9161;47.348;9.648;2023-03-01T20:20:54;31.10;;;15.57;;
18072;SDS011;9161;47.348;9.648;2023-03-01T20:26:02;31.80;;;15.43;;
18072;SDS011;9161;47.348;9.648;2023-03-01T20:31:11;34.57;;;15.23;;
18072;SDS011;9161;47.348;9.648;2023-03-01T20:36:19;34.47;;;15.13;;
18072;SDS011;9161;47.348;9.648;2023-03-01T20:41:24;38.67;;;16.53;;
18072;SDS011;9161;47.348;9.648;2023-03-01T20:46:29;33.77;;;15.57;;
18072;SDS011;9161;47.348;9.648;2023-03-01T20:51:34;37.50;;;16.87;;
18072;SDS011;9161;47.348;9.648;2023-03-01T20:56:39;36.37;;;16.20;;
18072;SDS011;9161;47.348;9.648;2023-03-01T21:01:43;34.77;;;15.47;;
18072;SDS011;9161;47.348;9.648;2023-03-01T21:06:46;34.40;;;16.83;;
18072;SDS011;9161;47.348;9.648;2023-03-01T21:11:53;39.33;;;15.50;;
18072;SDS011;9161;47.348;9.648;2023-03-01T21:16:58;33.07;;;14.97;;
18072;SDS011;9161;47.348;9.648;2023-03-01T21:22:02;36.80;;;17.57;;
18072;SDS011;9161;47.348;9.648;2023-03-01T21:27:06;34.97;;;15.77;;
18072;SDS011;9161;47.348;9.648;2023-03-01T21:32:09;39.63;;;17.33;;
18072;SDS011;9161;47.348;9.648;2023-03-01T21:37:12;35.50;;;16.13;;
18072;SDS011;9161;47.348;9.648;2023-03-01T21:42:18;34.20;;;15.90;;
18072;SDS011;9161;47.348;9.648;2023-03-01T21:47:20;35.57;;;15.93;;
18072;SDS011;9161;47.348;9.648;2023-03-01T21:52:22;32.37;;;16.67;;
18072;SDS011;9161;47.348;9.648;2023-03-01T21:57:27;37.23;;;16.30;;
18072;SDS011;9161;47.348;9.648;2023-03-01T22:02:30;35.60;;;16.57;;
18072;SDS011;9161;47.348;9.648;2023-03-01T22:07:32;34.77;;;16.57;;
18072;SDS011;9161;47.348;9.648;2023-03-01T22:12:39;38.07;;;16.30;;
18072;SDS011;9161;47.348;9.648;2023-03-01T22:17:47;35.40;;;15.87;;
18072;SDS011;9161;47.348;9.648;2023-03-01T22:22:50;37.60;;;16.53;;
18072;SDS011;9161;47.348;9.648;2023-03-01T22:27:55;37.00;;;17.00;;
18072;SDS011;9161;47.348;9.648;2023-03-01T22:32:58;33.13;;;16.13;;
18072;SDS011;9161;47.348;9.648;2023-03-01T22:38:00;37.70;;;16.10;;
18072;SDS011;9161;47.348;9.648;2023-03-01T22:43:07;36.87;;;15.40;;
18072;SDS011;9161;47.348;9.648;2023-03-01T22:48:09;36.77;;;16.17;;
18072;SDS011;9161;47.348;9.648;2023-03-01T22:53:28;37.53;;;16.30;;
18072;SDS011;9161;47.348;9.648;2023-03-01T22:59:04;39.40;;;16.40;;
18072;SDS011;9161;47.348;9.648;2023-03-01T23:04:22;33.47;;;15.30;;
18072;SDS011;9161;47.348;9.648;2023-03-01T23:09:25;38.73;;;16.63;;
18072;SDS011;9161;47.348;9.648;2023-03-01T23:14:31;34.20;;;16.27;;
18072;SDS011;9161;47.348;9.648;2023-03-01T23:19:34;32.87;;;15.37;;
18072;SDS011;9161;47.348;9.648;2023-03-01T23:24:36;32.33;;;15.83;;
18072;SDS011;9161;47.348;9.648;2023-03-01T23:29:40;35.23;;;15.50;;
18072;SDS011;9161;47.348;9.648;2023-03-01T23:34:43;36.20;;;16.67;;
18072;SDS011;9161;47.348;9.648;2023-03-01T23:39:45;35.07;;;15.43;;
18072;SDS011;9161;47.348;9.648;2023-03-01T23:44:51;30.63;;;14.70;;
18072;SDS011;9161;47.348;9.648;2023-03-01T23:49:53;29.73;;;14.13;;
18072;SDS011;9161;47.348;9.648;2023-03-01T23:54:56;33.33;;;14.97;;
